Phillipston, Massachusetts
Current Conditions -  °F | °C
As of 8:52 PM on Saturday 25 Oct 2014 (Local Time) from KORE Reporting Station
Few Clouds Few Clouds  
Wind Chill: 47°   Ceiling: Unl
Heat Index: 47°   Visibility: 10mi
Dew Point: 45°   Wind: 0mph
Humidity: 93%   Direction: NA
Pressure: 29.54"   Gusts: NA
Location:  42.617°N, 72.1846°W
Report Text: KORE 260052Z AUTO 00000KT 10SM FEW090 08/07 A2954 RMK AO2 SLP008 T00830072
Loading
Personal Weather Stations






























Interactive Weather Map
Tropical Storm Tracking
New forecast layout! Learn more

10-Day Weather Forecast

Advertisements
Track Severe Weather on mobile